createdAt,value
2018-12-01T05:01:05.300Z,18.13
2018-12-01T05:03:33.423Z,19.00
2018-12-01T05:06:01.487Z,21.17
2018-12-01T05:08:29.575Z,25.75
2018-12-01T05:10:57.664Z,20.03
2018-12-01T05:13:26.885Z,23.25
2018-12-01T05:15:55.039Z,24.97
2018-12-01T05:18:23.128Z,25.17
2018-12-01T05:20:51.223Z,23.07
2018-12-01T05:23:19.310Z,23.03
2018-12-01T05:25:47.396Z,25.62
2018-12-01T05:28:15.502Z,23.47
2018-12-01T05:30:43.796Z,20.37
2018-12-01T05:33:11.896Z,22.23
2018-12-01T05:35:39.971Z,31.30
2018-12-01T05:38:08.072Z,23.33
2018-12-01T05:40:36.156Z,21.70
2018-12-01T05:43:04.372Z,20.90
2018-12-01T05:45:32.459Z,20.37
2018-12-01T05:48:00.559Z,21.77
2018-12-01T05:50:28.627Z,26.17
2018-12-01T05:52:57.115Z,22.07
2018-12-01T05:55:25.426Z,27.07
2018-12-01T05:57:53.575Z,26.83
2018-12-01T06:00:21.951Z,23.85
2018-12-01T06:02:50.052Z,23.67
2018-12-01T06:05:18.123Z,21.27
2018-12-01T06:07:46.231Z,24.70
2018-12-01T06:10:17.449Z,21.67
2018-12-01T06:12:45.932Z,21.27
2018-12-01T06:15:16.576Z,23.65
2018-12-01T06:17:44.652Z,20.77
2018-12-01T06:20:16.714Z,19.57
2018-12-01T06:22:44.803Z,23.80
2018-12-01T06:25:14.916Z,22.22
2018-12-01T06:27:43.055Z,21.37
2018-12-01T06:30:14.328Z,23.83
2018-12-01T06:32:42.577Z,22.70
2018-12-01T06:35:10.693Z,23.03
2018-12-01T06:37:38.763Z,21.60
2018-12-01T06:40:10.287Z,19.90
2018-12-01T06:42:38.399Z,19.30
2018-12-01T06:45:09.244Z,18.57
2018-12-01T06:47:38.964Z,18.85
2018-12-01T06:50:23.216Z,18.20
2018-12-01T06:52:53.213Z,19.80
2018-12-01T06:55:22.190Z,19.93
2018-12-01T06:57:50.259Z,21.77
2018-12-01T07:00:19.559Z,21.30
2018-12-01T07:02:48.137Z,21.33
2018-12-01T07:05:16.827Z,24.27
2018-12-01T07:07:44.915Z,23.52
2018-12-01T07:10:14.211Z,23.98
2018-12-01T07:12:44.717Z,23.27
2018-12-01T07:15:16.196Z,23.98
2018-12-01T07:17:44.299Z,21.93
2018-12-01T07:20:12.387Z,23.33
2018-12-01T07:22:40.517Z,22.47
2018-12-01T07:25:08.592Z,25.97
2018-12-01T07:27:36.676Z,24.20
2018-12-01T07:30:13.448Z,22.83
2018-12-01T07:32:42.232Z,24.13
2018-12-01T07:35:10.334Z,25.43
2018-12-01T07:37:38.856Z,24.50
2018-12-01T07:40:11.843Z,24.77
2018-12-01T07:42:40.060Z,23.73
2018-12-01T07:45:11.261Z,22.20
2018-12-01T07:47:39.362Z,23.67
2018-12-01T07:50:10.410Z,25.13
2018-12-01T07:52:38.491Z,21.70
2018-12-01T07:55:07.062Z,21.67
2018-12-01T07:57:35.159Z,20.63
2018-12-01T08:00:04.854Z,20.90
2018-12-01T08:02:33.471Z,20.40
2018-12-01T08:05:03.144Z,20.53
2018-12-01T08:07:31.336Z,19.97
2018-12-01T08:09:59.456Z,20.53
2018-12-01T08:12:27.552Z,20.00
2018-12-01T08:14:55.755Z,20.57
2018-12-01T08:17:23.943Z,20.30
2018-12-01T08:19:52.566Z,20.40
2018-12-01T08:22:21.028Z,19.70
2018-12-01T08:24:49.191Z,18.97
2018-12-01T08:27:17.372Z,17.90
2018-12-01T08:29:45.562Z,18.82
2018-12-01T08:32:13.635Z,16.90
2018-12-01T08:34:41.735Z,18.93
2018-12-01T08:37:09.880Z,18.20
2018-12-01T08:39:38.108Z,17.03
2018-12-01T08:42:07.775Z,16.10
2018-12-01T08:44:35.904Z,15.65
2018-12-01T08:47:04.037Z,15.87
2018-12-01T08:49:32.096Z,16.60
2018-12-01T08:52:00.208Z,17.23
2018-12-01T08:54:28.303Z,18.32
2018-12-01T08:56:57.216Z,16.67
2018-12-01T08:59:25.327Z,16.02
2018-12-01T09:01:53.436Z,17.63
2018-12-01T09:04:22.904Z,17.02
2018-12-01T09:06:51.013Z,20.33
2018-12-01T09:09:19.104Z,18.00
2018-12-01T09:11:47.180Z,16.80
2018-12-01T09:14:15.263Z,17.07
2018-12-01T09:16:43.358Z,15.47
2018-12-01T09:19:11.960Z,16.47
2018-12-01T09:21:40.071Z,16.50
2018-12-01T09:24:08.163Z,16.93
2018-12-01T09:26:37.085Z,16.07
2018-12-01T09:29:05.436Z,18.77
2018-12-01T09:31:33.516Z,16.03
2018-12-01T09:34:01.608Z,14.30
2018-12-01T09:36:29.700Z,14.50
2018-12-01T09:38:57.794Z,14.13
2018-12-01T09:41:25.896Z,13.55
2018-12-01T09:43:54.009Z,13.00
2018-12-01T09:46:22.083Z,14.43
2018-12-01T09:48:50.185Z,14.10
2018-12-01T09:51:18.256Z,13.17
2018-12-01T09:53:46.351Z,13.40
2018-12-01T09:56:14.436Z,12.85
2018-12-01T09:58:42.539Z,13.27
2018-12-01T10:01:10.643Z,13.03
2018-12-01T10:03:38.723Z,13.57
2018-12-01T10:06:07.815Z,14.35
2018-12-01T10:08:36.491Z,14.03
2018-12-01T10:11:04.927Z,14.80
2018-12-01T10:13:33.027Z,16.37
2018-12-01T10:16:01.563Z,14.90
2018-12-01T10:18:30.349Z,14.68
2018-12-01T10:20:58.460Z,13.80
2018-12-01T10:23:26.557Z,15.97
2018-12-01T10:25:54.640Z,15.07
2018-12-01T10:28:22.742Z,15.70
2018-12-01T10:30:50.824Z,17.20
2018-12-01T10:33:19.066Z,16.47
2018-12-01T10:35:47.191Z,16.67
2018-12-01T10:38:16.903Z,11.97
2018-12-01T10:40:44.999Z,12.33
2018-12-01T10:43:13.160Z,10.77
2018-12-01T10:45:42.843Z,11.08
2018-12-01T10:48:10.947Z,11.80
2018-12-01T10:50:39.299Z,12.00
2018-12-01T10:53:07.707Z,11.93
2018-12-01T10:55:35.900Z,12.67
2018-12-01T10:58:10.561Z,11.47
2018-12-01T11:00:44.253Z,11.83
2018-12-01T11:03:18.044Z,11.30
2018-12-01T11:05:46.579Z,11.23
2018-12-01T11:08:15.694Z,11.85
2018-12-01T11:10:44.175Z,9.73
2018-12-01T11:13:12.449Z,9.50
2018-12-01T11:15:40.724Z,9.50
2018-12-01T11:18:08.811Z,7.60
2018-12-01T11:20:36.919Z,8.13
2018-12-01T11:23:05.610Z,8.73
2018-12-01T11:25:33.992Z,9.00
2018-12-01T11:28:02.873Z,9.97
2018-12-01T11:30:31.004Z,9.40
2018-12-01T11:32:59.289Z,10.10
2018-12-01T11:35:27.457Z,10.78
2018-12-01T11:37:55.541Z,9.90
2018-12-01T11:40:23.905Z,10.88
2018-12-01T11:42:52.265Z,10.23
2018-12-01T11:45:22.935Z,10.75
2018-12-01T11:47:51.036Z,10.83
2018-12-01T11:50:20.063Z,11.63
2018-12-01T11:52:49.090Z,10.50
2018-12-01T11:55:19.385Z,8.37
2018-12-01T11:57:47.536Z,8.65
2018-12-01T12:00:17.078Z,8.00
2018-12-01T12:02:45.435Z,8.27
2018-12-01T12:05:14.879Z,7.27
2018-12-01T12:07:54.336Z,7.45
2018-12-01T12:10:22.448Z,7.50
2018-12-01T12:12:50.552Z,8.15
2018-12-01T12:15:19.143Z,7.77
2018-12-01T12:17:53.360Z,8.47
2018-12-01T12:20:21.443Z,7.73
2018-12-01T12:22:49.532Z,7.73
2018-12-01T12:25:17.612Z,7.77
2018-12-01T12:27:45.700Z,6.97
2018-12-01T12:30:14.827Z,7.15
2018-12-01T12:32:43.362Z,6.63
2018-12-01T12:35:12.703Z,6.85
2018-12-01T12:37:40.994Z,8.00
2018-12-01T12:40:25.960Z,6.70
2018-12-01T12:42:55.161Z,7.53
